CIX weather

Capitan FAP Jose A Quinones Gonzales International Airport
Chiclayo, Lambayeque Region, PerĂº

Public forecast

Using degrees Celsius for public forecast. Weather courtesy of forecast.io.

Current aviation weather report (METAR) for Capitan FAP Jose A Quinones Gonzales International Airport

Retrieved 2020/02/16 18:00 UTC (41 minutes ago):

SPHI 161800Z 20013KT 170V230 9999 FEW015 29/19 Q1008 RMK BIRD HAZARD RWY 19/01 PP000

Aviation forecast (TAF) for Capitan FAP Jose A Quinones Gonzales International Airport

Retrieved 2020/02/16 18:36 UTC (5 minutes ago):

TAF SPHI 161700Z 1618/1718 18012KT CAVOK TX30/1619Z TN22/1711Z FM162000 18016KT CAVOK BECMG 1702/1704 18008KT SCT013 BKN100 BECMG 1714/1716 SCT020